Time;durP1;ratioP1;P1;durP2;ratioP2;P2;SDS_P1;SDS_P2;PMS_P1;PMS_P2;Temp;Humidity;BMP_temperature;BMP_pressure;BME280_temperature;BME280_humidity;BME280_pressure;Samples;Min_cycle;Max_cycle;Signal;HPM_P1;HPM_P2
2023/06/23 00:00:22;;;;;;;3.75;3.00;;;;;;;-141.84;94.56;20907.41;4973338;28;20650;-63
2023/06/23 00:02:51;;;;;;;2.92;2.58;;;;;;;-141.84;95.23;20911.47;4973390;28;20283;-64
2023/06/23 00:05:20;;;;;;;3.67;2.80;;;;;;;-141.84;95.35;20933.81;4974073;28;20255;-65
2023/06/23 00:07:48;;;;;;;3.50;2.45;;;;;;;-141.84;94.89;20883.00;4973580;28;20657;-64
2023/06/23 00:10:17;;;;;;;2.65;2.40;;;;;;;-141.84;95.07;20911.47;4973529;28;20232;-65
2023/06/23 00:12:47;;;;;;;2.90;2.28;;;;;;;-141.84;94.75;20887.06;4956940;28;20320;-64
2023/06/23 00:15:17;;;;;;;2.47;2.25;;;;;;;-141.84;94.15;20948.06;4954223;28;20327;-63
2023/06/23 00:17:48;;;;;;;3.13;2.70;;;;;;;-141.84;93.53;20911.47;4954360;28;20223;-64
2023/06/23 00:20:19;;;;;;;2.90;2.60;;;;;;;-141.84;93.33;20895.19;4954235;28;20586;-63
2023/06/23 00:22:47;;;;;;;3.42;2.10;;;;;;;-141.84;92.78;20921.63;4971910;28;20231;-64
2023/06/23 00:25:16;;;;;;;2.30;1.75;;;;;;;-141.84;92.09;20927.72;4973662;28;20775;-64
2023/06/23 00:27:45;;;;;;;2.95;2.00;;;;;;;-141.84;91.63;20901.31;4973440;28;20414;-64
2023/06/23 00:30:14;;;;;;;2.53;1.85;;;;;;;-141.84;91.49;20923.66;4966747;28;20236;-64
2023/06/23 00:32:45;;;;;;;1.88;1.75;;;;;;;-141.84;91.92;20913.50;4954021;28;20201;-64
2023/06/23 00:35:14;;;;;;;2.08;1.75;;;;;;;-141.84;91.67;20866.75;4954507;28;20249;-65
2023/06/23 00:37:44;;;;;;;2.45;1.95;;;;;;;-141.84;92.46;20878.94;4953923;28;20233;-63
2023/06/23 00:40:13;;;;;;;1.60;1.40;;;;;;;-141.84;92.72;20848.44;4953954;28;20232;-65
2023/06/23 00:42:46;;;;;;;2.13;1.70;;;;;;;-141.84;92.56;20866.75;4969550;28;20240;-64
2023/06/23 00:45:15;;;;;;;1.95;1.67;;;;;;;-141.84;93.98;20840.31;4973295;28;20232;-64
2023/06/23 00:47:46;;;;;;;2.85;1.70;;;;;;;-141.84;93.92;20866.75;4973448;28;20231;-64
2023/06/23 00:50:16;;;;;;;1.50;1.40;;;;;;;-141.84;92.46;20874.88;4973484;28;20254;-64
2023/06/23 00:52:50;;;;;;;1.38;1.27;;;;;;;-141.84;92.78;20866.75;4972689;28;20298;-64
2023/06/23 00:55:20;;;;;;;1.50;1.40;;;;;;;-141.84;92.99;20878.94;4972889;28;20581;-63
2023/06/23 00:57:49;;;;;;;2.67;1.65;;;;;;;-141.84;93.23;20862.69;4972836;28;20717;-64
2023/06/23 01:00:19;;;;;;;1.90;1.40;;;;;;;-141.84;94.34;20832.19;4972711;28;20708;-63
2023/06/23 01:02:50;;;;;;;2.90;1.50;;;;;;;-141.84;94.47;20876.91;4971996;28;20193;-63
2023/06/23 01:05:20;;;;;;;3.50;1.50;;;;;;;-141.84;93.73;20880.97;4973111;28;20239;-63
2023/06/23 01:07:57;;;;;;;3.58;1.45;;;;;;;-141.84;94.22;20864.72;4965659;28;20232;-64
2023/06/23 01:10:35;;;;;;;1.58;1.48;;;;;;;-141.84;93.77;20850.47;4953261;28;20252;-64
2023/06/23 01:13:13;;;;;;;2.53;1.20;;;;;;;-141.84;94.25;20872.84;4953823;28;20287;-64
2023/06/23 01:15:47;;;;;;;1.40;1.30;;;;;;;-141.84;94.75;20838.28;4962783;28;20711;-64
2023/06/23 01:18:28;;;;;;;4.25;1.30;;;;;;;-141.84;95.08;20848.44;4964048;28;20228;-63
2023/06/23 01:21:01;;;;;;;2.15;1.52;;;;;;;-141.84;95.08;20840.31;4956384;28;20278;-63
2023/06/23 01:23:45;;;;;;;1.50;1.40;;;;;;;-141.84;95.71;20836.25;4972961;28;20587;-63
2023/06/23 01:26:31;;;;;;;1.77;1.40;;;;;;;-141.84;96.15;20822.03;4953468;28;20211;-63
2023/06/23 01:29:07;;;;;;;3.33;1.30;;;;;;;-141.84;96.05;20824.06;4972655;28;20215;-63
2023/06/23 01:31:43;;;;;;;1.50;1.35;;;;;;;-141.84;96.33;20807.78;4972230;28;20232;-64
2023/06/23 01:34:20;;;;;;;1.52;1.30;;;;;;;-141.84;96.31;20805.75;4972046;28;20806;-64
2023/06/23 01:36:55;;;;;;;2.05;1.30;;;;;;;-141.84;95.86;20811.84;4972368;28;20774;-64
2023/06/23 01:39:26;;;;;;;1.30;1.20;;;;;;;-141.84;96.16;20775.25;4972208;28;20238;-64
2023/06/23 01:42:00;;;;;;;2.08;1.23;;;;;;;-141.84;96.21;20805.75;4971640;28;20227;-65
2023/06/23 01:44:31;;;;;;;1.25;1.10;;;;;;;-141.84;94.98;20850.47;4972433;28;20652;-64
2023/06/23 01:47:03;;;;;;;1.45;1.15;;;;;;;-141.84;94.90;20811.84;4972639;28;20247;-63
2023/06/23 01:49:36;;;;;;;0.90;0.90;;;;;;;-141.84;95.15;20822.03;4971998;28;20230;-65
2023/06/23 01:52:06;;;;;;;1.95;1.00;;;;;;;-141.84;95.00;20838.28;4972132;28;20243;-64
2023/06/23 01:54:38;;;;;;;1.13;0.90;;;;;;;-141.84;95.23;20805.75;4971753;28;20254;-64
2023/06/23 01:57:08;;;;;;;1.13;1.00;;;;;;;-141.84;94.50;20846.41;4971658;28;20228;-63
2023/06/23 01:59:40;;;;;;;1.77;1.27;;;;;;;-141.84;93.58;20850.47;4972438;28;20300;-64
2023/06/23 02:02:11;;;;;;;1.55;1.30;;;;;;;-141.84;94.01;20826.09;4972743;28;20239;-63
2023/06/23 02:04:42;;;;;;;1.40;1.17;;;;;;;-141.84;94.00;20834.22;4960016;28;20228;-64
2023/06/23 02:07:14;;;;;;;1.60;1.50;;;;;;;-141.84;94.36;20817.94;4952885;28;20241;-63
2023/06/23 02:09:45;;;;;;;1.42;1.33;;;;;;;-141.84;93.90;20864.72;4952965;28;20247;-64
2023/06/23 02:12:16;;;;;;;2.17;1.50;;;;;;;-141.84;93.81;20795.59;4964718;28;20592;-63
2023/06/23 02:14:49;;;;;;;1.77;1.67;;;;;;;-141.84;93.55;20822.03;4973013;28;20239;-63
2023/06/23 02:17:21;;;;;;;1.77;1.23;;;;;;;-141.84;92.68;20852.50;4976217;28;20210;-63
2023/06/23 02:19:51;;;;;;;1.60;1.50;;;;;;;-141.84;92.74;20844.38;4975668;28;20315;-62
2023/06/23 02:22:24;;;;;;;2.70;1.27;;;;;;;-141.84;93.49;20807.78;4975982;28;20255;-62
2023/06/23 02:24:53;;;;;;;1.65;1.55;;;;;;;-141.84;93.44;20834.22;4975595;28;20239;-62
2023/06/23 02:27:23;;;;;;;3.05;1.40;;;;;;;-141.84;93.65;20807.78;4975905;28;20323;-63
2023/06/23 02:29:54;;;;;;;2.45;1.38;;;;;;;-141.84;92.62;20854.53;4975875;28;20196;-63
2023/06/23 02:32:25;;;;;;;1.63;1.30;;;;;;;-141.84;93.03;20834.22;4976266;28;20212;-62
2023/06/23 02:34:54;;;;;;;1.60;1.50;;;;;;;-141.84;93.11;20828.13;4975374;28;20228;-63
2023/06/23 02:37:25;;;;;;;1.60;1.50;;;;;;;-141.84;93.09;20817.94;4975840;28;20723;-62
2023/06/23 02:39:58;;;;;;;2.83;1.55;;;;;;;-141.84;93.07;20838.28;4975041;28;20232;-62
2023/06/23 02:42:32;;;;;;;1.70;1.55;;;;;;;-141.84;92.35;20866.75;4974030;28;20775;-62
2023/06/23 02:45:05;;;;;;;1.90;1.63;;;;;;;-141.84;91.82;20840.31;4975334;28;20302;-62
2023/06/23 02:47:38;;;;;;;2.22;1.55;;;;;;;-141.84;91.84;20874.88;4975887;28;20275;-65
2023/06/23 02:50:11;;;;;;;1.92;1.50;;;;;;;-141.84;92.26;20840.31;4975363;28;20782;-62
2023/06/23 02:52:48;;;;;;;2.00;1.80;;;;;;;-141.84;90.96;20844.38;4975239;28;20601;-63
2023/06/23 02:55:21;;;;;;;1.90;1.48;;;;;;;-141.84;90.96;20862.69;4975254;28;20234;-64
2023/06/23 02:57:53;;;;;;;2.58;1.70;;;;;;;-141.84;91.57;20813.88;4975586;28;20316;-62
2023/06/23 03:00:24;;;;;;;2.15;2.00;;;;;;;-141.84;91.99;20842.34;4967893;28;20868;-63
2023/06/23 03:02:58;;;;;;;2.53;1.83;;;;;;;-141.84;92.74;20803.72;4956151;28;20717;-62
2023/06/23 03:05:27;;;;;;;3.17;1.90;;;;;;;-141.84;93.20;20832.19;4956160;28;20584;-63
2023/06/23 03:07:56;;;;;;;2.08;1.90;;;;;;;-141.84;92.26;20844.38;4963138;28;20223;-63
2023/06/23 03:10:24;;;;;;;3.17;2.10;;;;;;;-141.84;92.99;20864.72;4974976;28;20327;-63
2023/06/23 03:12:53;;;;;;;1.95;1.83;;;;;;;-141.84;93.11;20787.47;4974905;28;20735;-62
2023/06/23 03:15:23;;;;;;;2.35;2.15;;;;;;;-141.84;91.74;20870.81;4974711;28;20295;-62
2023/06/23 03:17:58;;;;;;;3.38;2.10;;;;;;;-141.84;91.76;20805.75;4975217;28;20231;-62
2023/06/23 03:20:32;;;;;;;3.08;2.38;;;;;;;-141.84;92.28;20846.41;4975432;28;20204;-63
2023/06/23 03:23:05;;;;;;;4.68;2.55;;;;;;;-141.84;91.85;20874.88;4975284;28;20271;-62
2023/06/23 03:25:33;;;;;;;2.55;2.35;;;;;;;-141.84;91.32;20842.34;4974611;28;20263;-62
2023/06/23 03:28:06;;;;;;;4.25;2.45;;;;;;;-141.84;90.53;20844.38;4974440;28;20235;-62
2023/06/23 03:30:40;;;;;;;2.70;2.28;;;;;;;-141.84;90.03;20826.09;4974689;28;20256;-62
2023/06/23 03:33:13;;;;;;;2.63;2.20;;;;;;;-141.84;90.15;20868.78;4974720;28;20227;-63
2023/06/23 03:35:44;;;;;;;3.13;2.53;;;;;;;-141.84;90.46;20870.81;4974688;28;20196;-62
2023/06/23 03:38:16;;;;;;;3.10;2.80;;;;;;;-141.84;90.67;20868.78;4975207;28;20255;-63
2023/06/23 03:40:48;;;;;;;4.63;2.92;;;;;;;-141.84;89.95;20860.66;4974119;28;20243;-63
2023/06/23 03:43:27;;;;;;;2.92;2.53;;;;;;;-141.84;89.51;20883.00;4974639;28;20236;-62
2023/06/23 03:46:02;;;;;;;2.95;2.53;;;;;;;-141.84;88.77;20954.16;4974228;28;20232;-62
2023/06/23 03:48:33;;;;;;;3.78;2.60;;;;;;;-141.84;89.89;20911.47;4974547;28;20233;-64
2023/06/23 03:51:04;;;;;;;4.07;3.00;;;;;;;-141.84;90.49;20876.91;4974462;28;20252;-62
2023/06/23 03:53:35;;;;;;;5.70;3.20;;;;;;;-141.84;90.41;20901.31;4974766;28;20212;-62
2023/06/23 03:56:08;;;;;;;4.95;3.20;;;;;;;-141.84;90.56;20905.38;4951993;28;20252;-62
2023/06/23 03:58:37;;;;;;;3.33;3.03;;;;;;;-141.84;89.24;20948.06;4951576;28;20304;-62
2023/06/23 04:01:07;;;;;;;3.60;3.05;;;;;;;-141.84;89.29;20952.13;4954269;28;20308;-63
2023/06/23 04:03:39;;;;;;;3.50;2.60;;;;;;;-141.84;89.39;20952.13;4957360;28;20807;-62
2023/06/23 04:06:10;;;;;;;4.45;3.42;;;;;;;-141.84;89.20;20964.31;4973899;28;20227;-63
2023/06/23 04:08:40;;;;;;;4.00;3.00;;;;;;;-141.84;87.75;20964.31;4973905;28;20235;-62
2023/06/23 04:11:12;;;;;;;4.07;3.20;;;;;;;-141.84;87.55;21011.09;4974624;28;20227;-63
2023/06/23 04:13:42;;;;;;;4.90;3.00;;;;;;;-141.84;86.89;20966.34;4973881;28;20255;-63
2023/06/23 04:16:13;;;;;;;3.70;3.10;;;;;;;-141.84;86.64;21000.91;4973587;28;20244;-62
2023/06/23 04:18:44;;;;;;;4.88;3.33;;;;;;;-141.84;86.58;20988.72;4973892;28;20315;-61
2023/06/23 04:21:16;;;;;;;3.85;3.38;;;;;;;-141.84;86.97;20964.31;4973621;28;20763;-63
2023/06/23 04:23:46;;;;;;;3.83;3.33;;;;;;;-141.84;86.47;20978.56;4973919;28;20197;-62
2023/06/23 04:26:16;;;;;;;5.05;3.60;;;;;;;-141.84;85.91;20988.72;4974105;28;20210;-62
2023/06/23 04:28:46;;;;;;;3.55;2.78;;;;;;;-141.84;86.84;20960.25;4973622;28;20281;-63
2023/06/23 04:31:18;;;;;;;4.90;3.08;;;;;;;-141.84;87.60;21004.97;4972968;28;20343;-62
2023/06/23 04:33:47;;;;;;;7.13;3.10;;;;;;;-141.84;86.45;21037.50;4973294;28;20243;-64
2023/06/23 04:36:20;;;;;;;4.80;3.53;;;;;;;-141.84;86.99;20992.78;4973038;28;20224;-62
2023/06/23 04:38:54;;;;;;;3.95;3.40;;;;;;;-141.84;86.86;21029.38;4972126;28;20207;-62
2023/06/23 04:41:25;;;;;;;3.63;3.15;;;;;;;-141.84;87.10;21025.31;4968155;28;20251;-63
2023/06/23 04:43:58;;;;;;;8.55;3.40;;;;;;;-141.84;86.45;21055.81;4953961;28;20256;-63
2023/06/23 04:46:32;;;;;;;5.32;3.45;;;;;;;-141.84;86.17;21072.06;4953601;28;20268;-62
2023/06/23 04:49:07;;;;;;;9.60;3.88;;;;;;;-141.84;85.90;21059.88;4954385;28;20583;-63
2023/06/23 04:51:40;;;;;;;4.97;3.50;;;;;;;-141.84;86.12;21102.56;4953837;28;20233;-63
2023/06/23 04:54:15;;;;;;;6.63;3.85;;;;;;;-141.84;84.71;21129.00;4953587;28;20239;-63
2023/06/23 04:56:48;;;;;;;14.57;12.43;;;;;;;-141.84;85.21;21120.88;4953943;28;20189;-62
2023/06/23 04:59:21;;;;;;;11.68;10.02;;;;;;;-141.84;85.31;21137.13;4954321;28;20189;-63
2023/06/23 05:01:51;;;;;;;5.53;3.70;;;;;;;-141.84;85.72;21106.63;4954023;28;20303;-62
2023/06/23 05:04:23;;;;;;;6.50;3.80;;;;;;;-141.84;86.12;21106.63;4953714;28;20228;-63
2023/06/23 05:06:53;;;;;;;6.25;4.18;;;;;;;-141.84;86.27;21104.59;4953520;28;20328;-63
2023/06/23 05:09:23;;;;;;;9.18;4.20;;;;;;;-141.84;85.90;21147.28;4953868;28;20232;-64
2023/06/23 05:11:54;;;;;;;5.18;4.40;;;;;;;-141.84;85.68;21159.50;4953756;28;20205;-63
2023/06/23 05:14:24;;;;;;;7.25;4.60;;;;;;;-141.84;85.09;21204.22;4954093;28;20219;-64
2023/06/23 05:16:58;;;;;;;6.13;4.53;;;;;;;-141.84;83.77;21242.84;4953435;28;20318;-63
2023/06/23 05:19:29;;;;;;;9.43;4.95;;;;;;;-141.84;82.99;21269.28;4959736;28;20767;-62
2023/06/23 05:22:01;;;;;;;7.72;5.18;;;;;;;-141.84;83.30;21275.38;4953425;28;20316;-64
2023/06/23 05:24:30;;;;;;;8.70;4.45;;;;;;;-141.84;83.55;21228.63;4953625;28;20271;-64
2023/06/23 05:27:03;;;;;;;8.68;5.82;;;;;;;-141.84;82.74;21253.00;4953497;28;20272;-62
2023/06/23 05:29:36;;;;;;;7.38;5.57;;;;;;;-141.84;81.14;21309.94;4954640;28;20668;-63
2023/06/23 05:32:10;;;;;;;11.50;6.38;;;;;;;-141.84;82.21;21299.78;4972722;28;20231;-63
2023/06/23 05:34:41;;;;;;;6.80;5.30;;;;;;;-141.84;82.85;21265.22;4972399;28;20223;-64
2023/06/23 05:37:12;;;;;;;9.10;5.72;;;;;;;-141.84;81.82;21464.47;4970863;28;20238;-64
2023/06/23 05:39:42;;;;;;;11.07;5.10;;;;;;;-141.84;75.19;21759.28;4952882;28;20595;-62
2023/06/23 05:42:10;;;;;;;9.40;5.40;;;;;;;-141.84;70.04;21938.22;4964627;28;20228;-63
2023/06/23 05:44:39;;;;;;;8.38;4.85;;;;;;;-141.84;71.18;21895.53;4953189;28;20288;-63
2023/06/23 05:47:15;;;;;;;6.00;5.38;;;;;;;-141.84;71.35;21875.19;4962476;28;20883;-63
2023/06/23 05:49:46;;;;;;;6.47;4.47;;;;;;;-141.84;71.51;21889.44;4952781;28;20236;-64
2023/06/23 05:52:19;;;;;;;6.43;5.32;;;;;;;-141.84;70.32;21956.53;4953329;28;20239;-62
2023/06/23 05:54:50;;;;;;;8.80;4.88;;;;;;;-141.84;69.53;21993.13;4952890;28;20228;-62
2023/06/23 05:57:26;;;;;;;7.15;4.63;;;;;;;-141.84;69.96;21881.28;4966192;28;20314;-62
2023/06/23 06:00:04;;;;;;;7.75;4.85;;;;;;;-141.84;70.14;21879.25;4967759;28;20228;-63
2023/06/23 06:02:37;;;;;;;5.88;4.53;;;;;;;-141.84;69.34;21987.03;4950884;29;20268;-64
2023/06/23 06:05:10;;;;;;;8.40;3.80;;;;;;;-141.84;66.53;22056.19;4961840;28;20228;-64
2023/06/23 06:07:40;;;;;;;8.32;3.70;;;;;;;-141.84;68.05;22041.94;4952839;28;20220;-62
2023/06/23 06:10:13;;;;;;;8.30;3.33;;;;;;;-141.84;66.68;22088.72;4953162;28;20786;-63
2023/06/23 06:12:44;;;;;;;6.95;3.38;;;;;;;-141.84;65.81;22090.75;4953101;28;20377;-63
2023/06/23 06:15:17;;;;;;;6.60;3.08;;;;;;;-141.84;66.89;22037.88;4952640;28;20247;-63
2023/06/23 06:17:48;;;;;;;7.07;3.20;;;;;;;-141.84;67.08;22035.84;4952212;28;20235;-61
2023/06/23 06:20:18;;;;;;;3.92;2.70;;;;;;;-141.84;65.46;22098.88;4970449;28;20608;-62
2023/06/23 06:22:50;;;;;;;5.55;2.80;;;;;;;-141.84;66.31;22204.63;4971804;28;20282;-62
2023/06/23 06:25:23;;;;;;;5.07;2.35;;;;;;;-141.84;63.03;22206.66;4971932;28;20231;-63
2023/06/23 06:27:52;;;;;;;4.22;2.60;;;;;;;-141.84;64.64;22066.34;4971291;28;20228;-63
2023/06/23 06:30:22;;;;;;;3.05;2.03;;;;;;;-141.84;67.24;21948.41;4971240;28;20251;-63
2023/06/23 06:32:54;;;;;;;3.53;2.35;;;;;;;-141.84;66.75;21899.59;4971795;28;20232;-62
2023/06/23 06:35:25;;;;;;;4.90;2.60;;;;;;;-141.84;69.80;21779.63;4954789;28;20304;-62
2023/06/23 06:37:56;;;;;;;3.30;2.58;;;;;;;-141.84;71.54;21702.34;4952694;28;20239;-63
2023/06/23 06:40:27;;;;;;;5.35;2.30;;;;;;;-141.84;69.68;21704.38;4952610;28;20236;-62
2023/06/23 06:42:56;;;;;;;2.78;2.17;;;;;;;-141.84;69.78;21649.50;4970005;28;20236;-62
2023/06/23 06:45:24;;;;;;;3.88;2.40;;;;;;;-141.84;72.40;21590.53;4964055;28;20295;-63
2023/06/23 06:47:57;;;;;;;2.30;1.95;;;;;;;-141.84;71.52;21576.28;4952820;28;20209;-63
2023/06/23 06:50:27;;;;;;;4.32;2.30;;;;;;;-141.84;72.76;21570.19;4952914;28;20296;-62
2023/06/23 06:52:56;;;;;;;3.20;2.55;;;;;;;-141.84;72.60;21507.16;4959745;28;20328;-63
2023/06/23 06:55:25;;;;;;;5.88;2.40;;;;;;;-141.84;74.72;21507.16;4971628;28;20323;-62
2023/06/23 06:57:54;;;;;;;3.83;2.90;;;;;;;-141.84;75.17;21456.34;4971186;28;20232;-62
2023/06/23 07:00:25;;;;;;;4.72;2.55;;;;;;;-141.84;74.85;21482.75;4971334;28;20600;-62
2023/06/23 07:02:59;;;;;;;3.22;1.80;;;;;;;-141.84;72.13;21501.06;4974603;28;20228;-62
2023/06/23 07:05:27;;;;;;;4.57;2.20;;;;;;;-141.84;72.30;21492.94;4975180;28;20686;-62
2023/06/23 07:07:56;;;;;;;5.07;2.42;;;;;;;-141.84;71.77;21478.69;4974920;28;20227;-62
2023/06/23 07:10:24;;;;;;;3.22;2.08;;;;;;;-141.84;72.60;21452.25;4974771;28;20815;-62
2023/06/23 07:12:53;;;;;;;3.85;2.30;;;;;;;-141.84;72.76;21436.00;4974860;28;20607;-63
2023/06/23 07:15:22;;;;;;;7.85;2.50;;;;;;;-141.84;72.92;21476.66;4974814;28;20319;-62
2023/06/23 07:17:50;;;;;;;5.60;2.25;;;;;;;-141.84;72.01;21501.06;4969894;28;20558;-62
2023/06/23 07:20:20;;;;;;;6.75;2.58;;;;;;;-141.84;72.05;21494.97;4960757;28;20209;-62
2023/06/23 07:22:49;;;;;;;2.40;2.20;;;;;;;-141.84;69.07;21586.47;4960855;28;20244;-62
2023/06/23 07:25:17;;;;;;;3.33;2.10;;;;;;;-141.84;68.59;21610.84;4955457;28;20260;-63
2023/06/23 07:27:48;;;;;;;5.32;2.60;;;;;;;-141.84;69.86;21560.03;4955773;28;20236;-62
2023/06/23 07:30:17;;;;;;;3.20;2.10;;;;;;;-141.84;70.41;21537.66;4955186;28;20225;-62
2023/06/23 07:32:47;;;;;;;4.05;2.17;;;;;;;-141.84;71.26;21505.13;4972486;28;20204;-62
2023/06/23 07:35:15;;;;;;;2.78;2.17;;;;;;;-141.84;70.15;21523.44;4951886;28;20221;-61
2023/06/23 07:37:45;;;;;;;2.25;1.98;;;;;;;-141.84;70.42;21570.19;4952471;28;20304;-61
2023/06/23 07:40:14;;;;;;;3.58;2.60;;;;;;;-141.84;68.61;21584.44;4954699;28;20316;-61
2023/06/23 07:42:42;;;;;;;2.58;2.17;;;;;;;-141.84;68.59;21614.94;4950796;28;20801;-61
2023/06/23 07:45:11;;;;;;;2.55;2.35;;;;;;;-141.84;68.89;21665.75;4939219;28;20311;-61
2023/06/23 07:47:40;;;;;;;2.33;2.13;;;;;;;-141.84;67.83;21657.63;4953953;28;20213;-65
2023/06/23 07:50:09;;;;;;;3.13;2.20;;;;;;;-141.84;67.58;21643.38;4967685;28;20204;-64
2023/06/23 07:52:37;;;;;;;2.47;2.20;;;;;;;-141.84;64.55;21651.53;4958545;28;20287;-62
2023/06/23 07:55:08;;;;;;;3.15;2.85;;;;;;;-141.84;65.86;21586.47;4953770;28;20316;-61
2023/06/23 07:57:37;;;;;;;4.32;2.90;;;;;;;-141.84;65.60;21529.53;4953734;28;20703;-61
2023/06/23 08:00:09;;;;;;;3.45;2.70;;;;;;;-141.84;66.54;21531.56;4958215;28;20231;-64
2023/06/23 08:02:43;;;;;;;4.35;2.80;;;;;;;-141.84;67.80;21478.69;4972809;28;20519;-65
2023/06/23 08:05:12;;;;;;;3.50;2.67;;;;;;;-141.84;67.68;21535.63;4972950;28;20203;-65
2023/06/23 08:07:44;;;;;;;3.72;2.95;;;;;;;-141.84;66.51;21537.66;4972659;28;20658;-64
2023/06/23 08:10:14;;;;;;;4.47;2.65;;;;;;;-141.84;66.68;21517.31;4954563;28;20260;-64
2023/06/23 08:12:43;;;;;;;2.90;2.70;;;;;;;-141.84;67.35;21480.72;4953379;28;20319;-64
2023/06/23 08:15:12;;;;;;;4.00;2.90;;;;;;;-141.84;66.18;21472.59;4953094;28;20236;-62
2023/06/23 08:17:41;;;;;;;2.60;2.38;;;;;;;-141.84;65.10;21507.16;4950752;28;20288;-63
2023/06/23 08:20:10;;;;;;;3.13;2.75;;;;;;;-141.84;65.18;21499.03;4960002;28;20211;-64
2023/06/23 08:22:40;;;;;;;2.85;2.60;;;;;;;-141.84;66.45;21458.38;4957633;28;20261;-63
2023/06/23 08:25:09;;;;;;;2.67;2.35;;;;;;;-141.84;65.05;21523.44;4951947;28;20783;-63
2023/06/23 08:27:39;;;;;;;3.25;2.70;;;;;;;-141.84;65.23;21537.66;4967756;28;20327;-64
2023/06/23 08:30:08;;;;;;;3.03;2.83;;;;;;;-141.84;64.36;21562.06;4970837;28;20275;-63
2023/06/23 08:32:37;;;;;;;3.20;2.53;;;;;;;-141.84;64.11;21574.25;4971424;28;20253;-63
2023/06/23 08:35:06;;;;;;;2.53;2.33;;;;;;;-141.84;63.77;21584.44;4971670;28;20282;-63
2023/06/23 08:37:34;;;;;;;3.28;2.38;;;;;;;-141.84;62.95;21639.31;4966919;28;20228;-63
2023/06/23 08:40:03;;;;;;;3.15;2.67;;;;;;;-141.84;63.66;21667.78;4969681;28;20263;-63
2023/06/23 08:42:32;;;;;;;2.88;2.67;;;;;;;-141.84;61.98;21753.19;4970249;28;20220;-62
2023/06/23 08:45:04;;;;;;;3.10;2.45;;;;;;;-141.84;60.84;21787.75;4955801;28;20778;-63
2023/06/23 08:47:35;;;;;;;3.47;2.97;;;;;;;-141.84;62.22;21797.94;4972065;28;20188;-63
2023/06/23 08:50:05;;;;;;;2.50;2.30;;;;;;;-141.84;60.14;21891.47;4941270;28;20708;-63
2023/06/23 08:52:34;;;;;;;2.80;2.60;;;;;;;-141.84;60.03;21891.47;4967836;28;20232;-63
2023/06/23 08:55:02;;;;;;;2.60;2.40;;;;;;;-141.84;60.33;21958.56;4971186;28;20266;-64
2023/06/23 08:57:32;;;;;;;2.90;2.70;;;;;;;-141.84;60.02;21863.00;4971282;28;20282;-62
2023/06/23 09:00:03;;;;;;;2.70;2.50;;;;;;;-141.84;60.14;21899.59;4971020;28;20250;-62
2023/06/23 09:02:31;;;;;;;4.95;2.30;;;;;;;-141.84;58.03;21960.59;4972067;28;20267;-63
2023/06/23 09:05:01;;;;;;;2.42;2.20;;;;;;;-141.84;58.60;21972.81;4970854;28;20216;-62
2023/06/23 09:07:30;;;;;;;3.55;2.28;;;;;;;-141.84;58.96;21903.66;4970432;28;20270;-62
2023/06/23 09:09:58;;;;;;;2.38;2.20;;;;;;;-141.84;59.79;21879.25;4970644;28;20302;-62
2023/06/23 09:12:27;;;;;;;2.25;2.05;;;;;;;-141.84;60.36;21820.28;4970667;28;20309;-60
2023/06/23 09:14:58;;;;;;;2.40;2.20;;;;;;;-141.84;60.41;21822.31;4970982;28;20286;-62
2023/06/23 09:17:30;;;;;;;2.10;1.92;;;;;;;-141.84;61.02;21783.69;4969795;28;20270;-64
2023/06/23 09:19:58;;;;;;;2.42;2.15;;;;;;;-141.84;59.23;21903.66;4963253;28;20678;-62
2023/06/23 09:22:29;;;;;;;3.20;2.10;;;;;;;-141.84;58.87;21938.22;4970757;28;20363;-61
2023/06/23 09:24:57;;;;;;;2.20;2.00;;;;;;;-141.84;58.73;21991.09;4970124;28;20315;-61
2023/06/23 09:27:41;;;;;;;4.35;2.00;;;;;;;-141.84;57.56;21997.19;4970090;28;20232;-63
2023/06/23 09:30:10;;;;;;;2.20;2.00;;;;;;;-141.84;58.68;21921.97;4970457;28;20239;-61
2023/06/23 09:32:45;;;;;;;4.53;2.38;;;;;;;-141.84;57.85;22003.31;4970810;28;20244;-60
2023/06/23 09:35:18;;;;;;;1.98;1.75;;;;;;;-141.84;58.56;21917.91;4954458;28;20315;-65
2023/06/23 09:37:49;;;;;;;3.78;2.22;;;;;;;-141.84;58.55;21944.34;4968478;28;20674;-62
2023/06/23 09:40:26;;;;;;;2.20;2.00;;;;;;;-141.84;59.54;21891.47;4970680;28;20235;-62
2023/06/23 09:42:58;;;;;;;3.78;1.80;;;;;;;-141.84;59.16;21899.59;4961807;28;20304;-62
2023/06/23 09:45:26;;;;;;;1.98;1.83;;;;;;;-141.84;58.79;21905.69;4951341;28;20315;-64
2023/06/23 09:47:56;;;;;;;2.00;1.80;;;;;;;-141.84;58.95;21867.06;4950844;28;20700;-66
2023/06/23 09:50:27;;;;;;;2.40;2.20;;;;;;;-141.84;58.40;21970.78;4951902;28;20208;-65
2023/06/23 09:53:03;;;;;;;4.40;2.13;;;;;;;-141.84;58.00;22031.78;4969912;28;20227;-60
2023/06/23 09:55:32;;;;;;;2.90;1.70;;;;;;;-141.84;57.33;22054.13;4970526;28;20294;-61
2023/06/23 09:58:08;;;;;;;1.80;1.70;;;;;;;-141.84;58.05;22066.34;4961568;28;20248;-64
2023/06/23 10:00:36;;;;;;;2.17;1.75;;;;;;;-141.84;58.23;22005.34;4951058;28;20239;-63
2023/06/23 10:03:06;;;;;;;1.92;1.77;;;;;;;-141.84;58.09;22013.47;4951286;28;20255;-63
2023/06/23 10:05:36;;;;;;;2.28;1.90;;;;;;;-141.84;58.47;21972.81;4951349;28;20227;-64
2023/06/23 10:08:09;;;;;;;2.05;1.85;;;;;;;-141.84;59.31;21917.91;4963391;28;20235;-63
2023/06/23 10:10:45;;;;;;;3.38;1.92;;;;;;;-141.84;59.32;21899.59;4970766;28;20322;-64
2023/06/23 10:13:14;;;;;;;2.35;2.15;;;;;;;-141.84;59.88;21883.31;4970451;28;20282;-64
2023/06/23 10:15:43;;;;;;;2.30;2.08;;;;;;;-141.84;60.12;21808.09;4951842;28;20324;-63
2023/06/23 10:18:14;;;;;;;2.10;2.00;;;;;;;-141.84;61.38;21765.38;4945898;28;20217;-63
2023/06/23 10:20:42;;;;;;;2.03;1.83;;;;;;;-141.84;62.07;21710.50;4933389;28;20264;-64
2023/06/23 10:23:13;;;;;;;3.25;2.10;;;;;;;-141.84;63.28;21659.66;4961978;28;20299;-64
2023/06/23 10:25:43;;;;;;;2.20;2.00;;;;;;;-141.84;63.29;21669.81;4950513;28;20579;-64
2023/06/23 10:28:16;;;;;;;3.15;2.20;;;;;;;-141.84;62.16;21738.97;4948787;28;20232;-63
2023/06/23 10:30:46;;;;;;;2.25;1.70;;;;;;;-141.84;62.03;21720.66;4949771;28;20311;-64
2023/06/23 10:33:20;;;;;;;2.53;1.77;;;;;;;-141.84;62.61;21726.75;4950735;28;20252;-63
2023/06/23 10:35:49;;;;;;;2.40;2.20;;;;;;;-141.84;62.87;21696.25;4950812;28;20205;-64
2023/06/23 10:38:24;;;;;;;2.47;1.90;;;;;;;-141.84;62.89;21704.38;4953978;28;20715;-66
2023/06/23 10:40:59;;;;;;;3.05;1.80;;;;;;;-141.84;63.53;21696.25;4948227;28;20697;-62
2023/06/23 10:43:32;;;;;;;2.00;1.90;;;;;;;-141.84;63.10;21700.31;4950669;28;20267;-63
2023/06/23 10:46:04;;;;;;;2.40;2.03;;;;;;;-141.84;63.90;21684.06;4954204;28;20315;-64
2023/06/23 10:48:35;;;;;;;2.28;2.08;;;;;;;-141.84;64.26;21673.88;4922439;28;20255;-64
2023/06/23 10:51:04;;;;;;;1.90;1.80;;;;;;;-141.84;63.31;21694.22;4962513;28;20791;-65
2023/06/23 10:53:33;;;;;;;3.30;1.85;;;;;;;-141.84;60.21;21820.28;4946694;28;20216;-69
2023/06/23 10:56:02;;;;;;;1.90;1.80;;;;;;;-141.84;60.61;21789.78;4972838;28;20700;-69
2023/06/23 10:58:52;;;;;;;1.70;1.60;;;;;;;-141.84;60.94;21771.50;4972006;28;20278;-69
2023/06/23 11:01:21;;;;;;;1.75;1.60;;;;;;;-141.84;60.46;21806.06;4970046;28;20223;-72
2023/06/23 11:03:53;;;;;;;2.78;2.00;;;;;;;-141.84;61.81;21736.94;4972690;28;20232;-71
2023/06/23 11:06:29;;;;;;;1.63;1.50;;;;;;;-141.84;62.47;21675.94;4973216;28;20259;-72
2023/06/23 11:08:58;;;;;;;1.80;1.70;;;;;;;-141.84;62.53;21657.63;4973427;28;20262;-71
2023/06/23 11:11:34;;;;;;;1.63;1.40;;;;;;;-141.84;63.33;21661.69;4970732;28;20235;-72
2023/06/23 11:14:03;;;;;;;1.70;1.42;;;;;;;-141.84;61.58;21675.94;4954223;28;20216;-65
2023/06/23 11:16:34;;;;;;;1.58;1.45;;;;;;;-141.84;63.00;21665.75;4968579;28;20708;-65
2023/06/23 11:19:06;;;;;;;1.35;1.25;;;;;;;-141.84;63.66;21659.66;4972817;28;20635;-66
2023/06/23 11:21:38;;;;;;;1.85;1.13;;;;;;;-141.84;63.67;21606.78;4972442;28;20255;-66
2023/06/23 11:24:19;;;;;;;1.50;1.40;;;;;;;-141.84;63.25;21612.88;4972865;28;20303;-67
2023/06/23 11:26:55;;;;;;;1.40;1.30;;;;;;;-141.84;62.25;21633.22;4973437;28;20306;-67
2023/06/23 11:29:24;;;;;;;2.45;1.27;;;;;;;-141.84;62.65;21659.66;4973259;28;20282;-68
2023/06/23 11:32:19;;;;;;;1.45;1.30;;;;;;;-141.84;63.92;21619.00;4972917;28;20204;-68
2023/06/23 11:34:54;;;;;;;1.40;1.30;;;;;;;-141.84;64.47;21610.84;4972939;28;20220;-66